Time;durP1;ratioP1;P1;durP2;ratioP2;P2;SDS_P1;SDS_P2;PMS_P1;PMS_P2;Temp;Humidity;BMP_temperature;BMP_pressure;BME280_temperature;BME280_humidity;BME280_pressure;Samples;Min_cycle;Max_cycle;Signal;HPM_P1;HPM_P2
2024/03/22 00:02:02;;;;;;;7.73;4.80;;;8.90;99.90;;;;;;5052943;28;20285;-60
2024/03/22 00:04:29;;;;;;;7.37;5.30;;;8.90;99.90;;;;;;5052922;28;20711;-59
2024/03/22 00:06:55;;;;;;;7.03;5.37;;;8.90;99.90;;;;;;5052900;28;20619;-60
2024/03/22 00:09:21;;;;;;;7.97;5.40;;;8.90;99.90;;;;;;5052755;28;20522;-60
2024/03/22 00:11:48;;;;;;;9.80;5.27;;;8.90;99.90;;;;;;5053087;28;20232;-60
2024/03/22 00:14:13;;;;;;;9.43;5.20;;;8.80;99.90;;;;;;5053059;28;20202;-59
2024/03/22 00:16:40;;;;;;;10.33;5.03;;;8.80;99.90;;;;;;5052697;28;20208;-59
2024/03/22 00:19:06;;;;;;;6.27;5.10;;;8.70;99.90;;;;;;5052805;28;20206;-59
2024/03/22 00:21:34;;;;;;;8.60;5.13;;;8.70;99.90;;;;;;5052766;28;20707;-59
2024/03/22 00:24:01;;;;;;;8.90;5.20;;;8.70;99.90;;;;;;5052690;28;20452;-59
2024/03/22 00:26:27;;;;;;;8.47;4.97;;;8.70;99.90;;;;;;5052343;28;20198;-59
2024/03/22 00:28:53;;;;;;;6.10;5.03;;;8.60;99.90;;;;;;5052156;28;20651;-59
2024/03/22 00:31:20;;;;;;;7.27;5.03;;;8.50;99.90;;;;;;5052504;28;20213;-60
2024/03/22 00:33:46;;;;;;;7.67;4.80;;;8.40;99.90;;;;;;5052864;28;20255;-59
2024/03/22 00:36:12;;;;;;;7.03;4.70;;;8.30;99.90;;;;;;5052100;28;20202;-59
2024/03/22 00:38:39;;;;;;;6.30;4.93;;;8.30;99.90;;;;;;5052356;28;20628;-59
2024/03/22 00:41:06;;;;;;;7.17;4.73;;;8.30;99.90;;;;;;5052247;28;20312;-59
2024/03/22 00:43:32;;;;;;;7.07;4.67;;;8.30;99.90;;;;;;5052741;28;20248;-59
2024/03/22 00:46:00;;;;;;;5.77;4.70;;;8.30;99.90;;;;;;5052130;28;20225;-59
2024/03/22 00:48:26;;;;;;;6.10;4.93;;;8.30;99.90;;;;;;5052130;28;20745;-59
2024/03/22 00:50:52;;;;;;;7.93;5.17;;;8.20;99.90;;;;;;5052167;28;20225;-58
2024/03/22 00:53:18;;;;;;;7.90;5.47;;;8.30;99.90;;;;;;5052736;28;20206;-59
2024/03/22 00:55:50;;;;;;;8.83;4.90;;;8.20;99.90;;;;;;5052640;28;20206;-59
2024/03/22 00:58:17;;;;;;;5.57;4.73;;;8.10;99.90;;;;;;5052160;28;20204;-59
2024/03/22 01:00:44;;;;;;;8.50;5.13;;;8.10;99.90;;;;;;5052074;28;20233;-58
2024/03/22 01:03:10;;;;;;;7.33;5.03;;;8.00;99.90;;;;;;5051896;28;20209;-59
2024/03/22 01:05:36;;;;;;;7.20;5.10;;;8.00;99.90;;;;;;5051730;28;20737;-59
2024/03/22 01:08:03;;;;;;;6.43;5.20;;;8.00;99.90;;;;;;5052413;28;20312;-59
2024/03/22 01:10:29;;;;;;;6.67;5.07;;;8.00;99.90;;;;;;5052404;28;20822;-59
2024/03/22 01:12:56;;;;;;;7.63;4.90;;;8.10;99.90;;;;;;5052194;28;20557;-64
2024/03/22 01:15:23;;;;;;;5.93;4.80;;;8.10;99.90;;;;;;5051980;28;20212;-59
2024/03/22 01:17:49;;;;;;;6.07;5.10;;;8.10;99.90;;;;;;5051933;28;20266;-59
2024/03/22 01:20:16;;;;;;;8.67;4.97;;;8.10;99.90;;;;;;5051677;28;20225;-59
2024/03/22 01:22:41;;;;;;;8.30;5.23;;;8.10;99.90;;;;;;5052077;28;20202;-60
2024/03/22 01:25:09;;;;;;;5.37;4.33;;;8.10;99.90;;;;;;5051708;28;20259;-57
2024/03/22 01:27:35;;;;;;;6.20;4.63;;;8.00;99.90;;;;;;5051839;28;20209;-58
2024/03/22 01:30:04;;;;;;;6.13;5.20;;;8.00;99.90;;;;;;5051515;28;20659;-60
2024/03/22 01:32:30;;;;;;;6.17;5.03;;;7.80;99.90;;;;;;5051561;28;20212;-63
2024/03/22 01:34:57;;;;;;;6.40;4.83;;;7.70;99.90;;;;;;5052045;28;20617;-59
2024/03/22 01:37:23;;;;;;;7.57;5.10;;;7.70;99.90;;;;;;5051393;28;20213;-59
2024/03/22 01:39:50;;;;;;;6.33;5.20;;;7.60;99.90;;;;;;5051498;28;20193;-59
2024/03/22 01:42:16;;;;;;;7.77;5.30;;;7.60;99.90;;;;;;5055130;28;20255;-58
2024/03/22 01:44:42;;;;;;;5.77;5.00;;;7.60;99.90;;;;;;5055530;28;20201;-58
2024/03/22 01:47:09;;;;;;;9.07;5.27;;;7.60;99.90;;;;;;5055634;28;20259;-58
2024/03/22 01:49:36;;;;;;;6.17;4.83;;;7.60;99.90;;;;;;5055703;28;20260;-60
2024/03/22 01:52:03;;;;;;;5.80;4.57;;;7.60;99.90;;;;;;5055507;28;20252;-60
2024/03/22 01:54:29;;;;;;;6.93;4.90;;;7.60;99.90;;;;;;5055508;28;20232;-58
2024/03/22 01:56:56;;;;;;;8.17;4.67;;;7.50;99.90;;;;;;5055135;28;20248;-58
2024/03/22 01:59:23;;;;;;;5.53;4.70;;;7.40;99.90;;;;;;5055219;28;20305;-58
2024/03/22 02:01:49;;;;;;;8.17;4.80;;;7.40;99.90;;;;;;5054863;28;20233;-58
2024/03/22 02:04:16;;;;;;;6.60;4.70;;;7.30;99.90;;;;;;5055219;28;20229;-58
2024/03/22 02:06:42;;;;;;;6.07;4.33;;;7.30;99.90;;;;;;5054967;28;20237;-59
2024/03/22 02:09:09;;;;;;;6.07;4.40;;;7.30;99.90;;;;;;5054963;28;20234;-59
2024/03/22 02:11:37;;;;;;;7.80;5.03;;;7.30;99.90;;;;;;5054987;28;20275;-59
2024/03/22 02:14:04;;;;;;;5.43;4.77;;;7.20;99.90;;;;;;5054790;28;20288;-59
2024/03/22 02:16:30;;;;;;;6.50;4.50;;;7.30;99.90;;;;;;5054461;28;20627;-59
2024/03/22 02:18:56;;;;;;;8.30;4.80;;;7.30;99.90;;;;;;5054923;28;20193;-59
2024/03/22 02:21:23;;;;;;;6.97;4.50;;;7.30;99.90;;;;;;5054889;28;20225;-59
2024/03/22 02:23:51;;;;;;;5.03;4.53;;;7.30;99.90;;;;;;5054808;28;20292;-59
2024/03/22 02:26:17;;;;;;;7.00;4.70;;;7.20;99.90;;;;;;5054348;28;20209;-59
2024/03/22 02:28:44;;;;;;;6.57;5.03;;;7.20;99.90;;;;;;5054437;28;20222;-59
2024/03/22 02:31:09;;;;;;;5.70;4.70;;;7.30;99.90;;;;;;5054576;28;20230;-59
2024/03/22 02:33:36;;;;;;;6.13;4.87;;;7.30;99.90;;;;;;5054689;28;20729;-58
2024/03/22 02:36:02;;;;;;;6.80;4.77;;;7.30;99.90;;;;;;5054147;28;20584;-59
2024/03/22 02:38:28;;;;;;;7.20;5.43;;;7.20;99.90;;;;;;5055018;28;20189;-59
2024/03/22 02:40:58;;;;;;;6.27;4.87;;;7.20;99.90;;;;;;5054215;28;20604;-59
2024/03/22 02:43:25;;;;;;;8.13;5.67;;;7.20;99.90;;;;;;5054244;28;20201;-59
2024/03/22 02:45:51;;;;;;;7.07;5.63;;;7.20;99.90;;;;;;5054335;28;20210;-59
2024/03/22 02:48:17;;;;;;;8.20;5.83;;;7.20;99.90;;;;;;5054368;28;20645;-58
2024/03/22 02:50:43;;;;;;;8.30;6.20;;;7.20;99.90;;;;;;5054360;28;20221;-59
2024/03/22 02:53:10;;;;;;;7.53;5.30;;;7.10;99.90;;;;;;5053633;28;20252;-58
2024/03/22 02:55:37;;;;;;;9.33;5.60;;;7.20;99.90;;;;;;5054033;28;20244;-58
2024/03/22 02:58:05;;;;;;;7.33;5.87;;;7.20;99.90;;;;;;5053938;28;20225;-58
2024/03/22 03:00:31;;;;;;;9.93;5.73;;;7.20;99.90;;;;;;5053803;28;20737;-58
2024/03/22 03:02:57;;;;;;;7.67;6.07;;;7.20;99.90;;;;;;5054121;28;20288;-59
2024/03/22 03:05:23;;;;;;;7.83;5.90;;;7.00;99.90;;;;;;5053872;28;20205;-59
2024/03/22 03:07:50;;;;;;;6.60;5.63;;;7.00;99.90;;;;;;5053913;28;20227;-59
2024/03/22 03:10:16;;;;;;;13.77;6.67;;;7.00;99.90;;;;;;5053775;28;20283;-59
2024/03/22 03:12:43;;;;;;;10.47;7.37;;;7.00;99.90;;;;;;5053757;28;20198;-59
2024/03/22 03:15:10;;;;;;;7.50;6.17;;;7.00;99.90;;;;;;5053677;28;20214;-59
2024/03/22 03:17:37;;;;;;;8.30;6.70;;;7.00;99.90;;;;;;5054107;28;20229;-59
2024/03/22 03:20:07;;;;;;;8.20;6.33;;;7.00;99.90;;;;;;5053712;28;20317;-59
2024/03/22 03:22:34;;;;;;;7.80;5.83;;;7.00;99.90;;;;;;5053726;28;20209;-59
2024/03/22 03:25:00;;;;;;;11.70;6.60;;;6.90;99.90;;;;;;5053461;28;20240;-59
2024/03/22 03:27:26;;;;;;;7.80;6.23;;;6.70;99.90;;;;;;5053588;28;20241;-59
2024/03/22 03:29:52;;;;;;;7.00;6.27;;;6.70;99.90;;;;;;5053689;28;20608;-59
2024/03/22 03:32:20;;;;;;;7.70;6.20;;;6.70;99.90;;;;;;5053517;28;20666;-59
2024/03/22 03:34:45;;;;;;;8.17;6.47;;;6.70;99.90;;;;;;5053554;28;20205;-58
2024/03/22 03:37:12;;;;;;;7.30;6.50;;;6.80;99.90;;;;;;5053067;28;20198;-59
2024/03/22 03:39:38;;;;;;;8.43;6.63;;;6.80;99.90;;;;;;5053395;28;20209;-58
2024/03/22 03:42:05;;;;;;;9.00;6.40;;;6.80;99.90;;;;;;5053417;28;20221;-58
2024/03/22 03:44:30;;;;;;;9.60;6.03;;;6.80;99.90;;;;;;5053443;28;20216;-58
2024/03/22 03:46:57;;;;;;;9.00;7.23;;;6.80;99.90;;;;;;5053225;28;20201;-58
2024/03/22 03:49:24;;;;;;;9.37;7.20;;;6.90;99.90;;;;;;5045269;28;20217;-59
2024/03/22 03:51:51;;;;;;;9.07;7.33;;;6.80;99.90;;;;;;5053266;28;20221;-58
2024/03/22 03:54:16;;;;;;;12.57;6.87;;;6.90;99.90;;;;;;5052865;28;20614;-58
2024/03/22 03:56:43;;;;;;;9.47;7.47;;;6.80;99.90;;;;;;5052978;28;20205;-58
2024/03/22 03:59:09;;;;;;;12.43;7.77;;;6.80;99.90;;;;;;5052893;28;20206;-59
2024/03/22 04:01:35;;;;;;;12.77;7.33;;;6.80;99.90;;;;;;5076110;22;20248;-65
2024/03/22 04:04:02;;;;;;;10.20;7.80;;;6.80;99.90;;;;;;5051960;28;20213;-65
2024/03/22 04:06:30;;;;;;;9.93;7.30;;;6.80;99.90;;;;;;5052560;28;20699;-66
2024/03/22 04:08:57;;;;;;;10.47;7.63;;;6.70;99.90;;;;;;5052797;28;20229;-65
2024/03/22 04:11:24;;;;;;;17.07;7.90;;;6.80;99.90;;;;;;5044506;28;20312;-65
2024/03/22 04:13:49;;;;;;;10.60;8.07;;;6.80;99.90;;;;;;5052569;28;20213;-64
2024/03/22 04:16:16;;;;;;;10.93;8.23;;;6.80;99.90;;;;;;5052345;28;20678;-64
2024/03/22 04:18:42;;;;;;;11.20;7.93;;;6.80;99.90;;;;;;5052296;28;20263;-64
2024/03/22 04:21:08;;;;;;;10.07;7.67;;;6.80;99.90;;;;;;5052206;28;20222;-65
2024/03/22 04:23:36;;;;;;;10.57;7.77;;;6.90;99.90;;;;;;5052497;28;20209;-63
2024/03/22 04:26:03;;;;;;;9.53;7.17;;;6.80;99.90;;;;;;5052281;28;20214;-64
2024/03/22 04:28:29;;;;;;;8.60;6.93;;;6.80;99.90;;;;;;5052595;28;20221;-63
2024/03/22 04:30:57;;;;;;;11.20;7.77;;;6.90;99.90;;;;;;5052151;28;20597;-63
2024/03/22 04:33:23;;;;;;;12.00;7.00;;;6.90;99.90;;;;;;5044048;28;20202;-63
2024/03/22 04:35:50;;;;;;;10.00;7.50;;;7.00;99.90;;;;;;5051855;28;20204;-63
2024/03/22 04:38:16;;;;;;;8.80;7.27;;;7.00;99.90;;;;;;5052203;28;20208;-65
2024/03/22 04:40:44;;;;;;;8.67;7.10;;;7.10;99.90;;;;;;5052288;28;20233;-63
2024/03/22 04:43:10;;;;;;;10.70;8.03;;;7.20;99.90;;;;;;5052074;28;20205;-64
2024/03/22 04:45:37;;;;;;;9.07;7.63;;;7.30;99.90;;;;;;5051966;28;20209;-64
2024/03/22 04:48:04;;;;;;;8.80;7.00;;;7.30;99.90;;;;;;5052291;28;20244;-63
2024/03/22 04:50:31;;;;;;;8.57;7.17;;;7.40;99.90;;;;;;5052120;28;20279;-65
2024/03/22 04:52:57;;;;;;;10.83;7.17;;;7.50;99.90;;;;;;5052401;28;20259;-64
2024/03/22 04:55:23;;;;;;;12.37;8.53;;;7.50;99.90;;;;;;5051876;28;20198;-64
2024/03/22 04:57:52;;;;;;;11.03;7.70;;;7.60;99.90;;;;;;5052038;28;20217;-63
2024/03/22 05:00:19;;;;;;;9.80;7.47;;;7.60;99.90;;;;;;5051813;28;20355;-64
2024/03/22 05:02:45;;;;;;;11.03;7.30;;;7.60;99.90;;;;;;5052150;28;20202;-64
2024/03/22 05:05:12;;;;;;;8.37;6.83;;;7.60;99.90;;;;;;5051935;28;20208;-64
2024/03/22 05:07:38;;;;;;;9.40;7.53;;;7.60;99.90;;;;;;5051940;28;20206;-64
2024/03/22 05:10:05;;;;;;;9.23;6.80;;;7.70;99.90;;;;;;5051573;28;20225;-64
2024/03/22 05:12:31;;;;;;;8.77;6.93;;;7.70;99.90;;;;;;5051733;28;20230;-65
2024/03/22 05:14:59;;;;;;;8.83;6.93;;;7.70;99.90;;;;;;5051551;28;20201;-63
2024/03/22 05:17:24;;;;;;;8.47;6.93;;;7.80;99.90;;;;;;5043235;28;20202;-64
2024/03/22 05:19:52;;;;;;;10.27;6.67;;;7.80;99.90;;;;;;5051825;28;20271;-64
2024/03/22 05:22:20;;;;;;;11.33;6.67;;;7.80;99.90;;;;;;5051525;28;20654;-64
2024/03/22 05:24:46;;;;;;;8.13;7.17;;;7.90;99.90;;;;;;5051640;28;20205;-65
2024/03/22 05:27:12;;;;;;;9.70;7.40;;;7.90;99.90;;;;;;5050992;28;20675;-65
2024/03/22 05:29:39;;;;;;;13.50;7.17;;;8.00;99.90;;;;;;5051320;28;20228;-64
2024/03/22 05:32:06;;;;;;;9.70;7.17;;;8.10;99.90;;;;;;5051074;28;20248;-65
2024/03/22 05:34:33;;;;;;;9.07;7.50;;;8.20;99.90;;;;;;5051722;28;20201;-64
2024/03/22 05:36:59;;;;;;;12.27;7.40;;;8.40;99.90;;;;;;5051443;28;20206;-65
2024/03/22 05:39:25;;;;;;;12.23;8.00;;;8.50;99.90;;;;;;5051452;28;20301;-64
2024/03/22 05:41:51;;;;;;;9.47;7.07;;;8.60;99.90;;;;;;5051360;28;20229;-65
2024/03/22 05:44:19;;;;;;;8.63;7.33;;;8.60;99.90;;;;;;5051274;28;20201;-64
2024/03/22 05:46:44;;;;;;;9.67;7.03;;;8.70;99.90;;;;;;5051262;28;20213;-64
2024/03/22 05:49:12;;;;;;;9.10;7.07;;;8.80;99.90;;;;;;5051401;28;20320;-64
2024/03/22 05:51:38;;;;;;;9.57;7.30;;;8.80;99.90;;;;;;5051291;28;20740;-64
2024/03/22 05:54:06;;;;;;;8.17;7.23;;;8.80;99.90;;;;;;5051179;28;20220;-64
2024/03/22 05:56:32;;;;;;;9.60;7.43;;;8.80;99.90;;;;;;5051147;28;20201;-64
2024/03/22 05:58:59;;;;;;;11.00;7.73;;;8.70;99.90;;;;;;5051203;28;20285;-64
2024/03/22 06:01:26;;;;;;;9.77;7.53;;;8.70;99.90;;;;;;5042842;28;20240;-64
2024/03/22 06:03:52;;;;;;;10.17;7.60;;;8.70;99.90;;;;;;5051363;28;20201;-64
2024/03/22 06:06:22;;;;;;;12.07;8.37;;;8.80;99.90;;;;;;5050979;28;20214;-63
2024/03/22 06:08:52;;;;;;;10.37;8.23;;;8.90;99.90;;;;;;5051106;28;20221;-64
2024/03/22 06:11:17;;;;;;;9.67;7.87;;;9.00;99.90;;;;;;5051257;28;20230;-64
2024/03/22 06:13:44;;;;;;;11.47;8.67;;;9.10;99.90;;;;;;5050940;28;20214;-64
2024/03/22 06:16:10;;;;;;;9.67;7.70;;;9.20;99.90;;;;;;5051103;28;20206;-64
2024/03/22 06:18:37;;;;;;;13.47;8.77;;;9.20;99.90;;;;;;5051093;28;20206;-64
2024/03/22 06:21:04;;;;;;;12.57;8.27;;;9.30;99.90;;;;;;5050893;28;20616;-63
2024/03/22 06:23:32;;;;;;;10.67;8.00;;;9.40;99.90;;;;;;5051272;28;20209;-64
2024/03/22 06:25:58;;;;;;;10.20;7.77;;;9.50;99.90;;;;;;5050947;28;20706;-64
2024/03/22 06:28:26;;;;;;;11.37;8.10;;;9.80;99.90;;;;;;5054123;28;20193;-64
2024/03/22 06:30:52;;;;;;;12.50;8.00;;;9.90;99.90;;;;;;5054854;28;20236;-64
2024/03/22 06:33:19;;;;;;;15.50;8.60;;;10.20;99.90;;;;;;5054616;28;20206;-64
2024/03/22 06:35:45;;;;;;;11.43;8.00;;;10.30;99.90;;;;;;5054659;28;20283;-64
2024/03/22 06:38:11;;;;;;;12.83;7.80;;;10.40;99.90;;;;;;5054440;28;20202;-63
2024/03/22 06:40:38;;;;;;;9.33;7.70;;;10.40;99.90;;;;;;5054284;28;20226;-64
2024/03/22 06:43:05;;;;;;;13.10;8.07;;;10.40;99.90;;;;;;5054095;28;20201;-64
2024/03/22 06:45:31;;;;;;;13.93;8.17;;;10.30;99.90;;;;;;5054213;28;20216;-64
2024/03/22 06:47:57;;;;;;;13.40;7.73;;;10.40;99.90;;;;;;5054284;28;20481;-64
2024/03/22 06:50:24;;;;;;;10.00;7.90;;;10.70;99.90;;;;;;5054116;28;20222;-61
2024/03/22 06:52:51;;;;;;;11.80;7.93;;;11.50;99.90;;;;;;5053954;28;20206;-62
2024/03/22 06:55:16;;;;;;;7.80;6.93;;;12.10;99.90;;;;;;5053735;28;20237;-63
2024/03/22 06:57:45;;;;;;;9.70;6.80;;;12.60;99.90;;;;;;5054128;28;20241;-62
2024/03/22 07:00:13;;;;;;;9.43;7.73;;;13.00;99.90;;;;;;5053785;28;20667;-62
2024/03/22 07:02:40;;;;;;;11.00;6.97;;;13.60;99.90;;;;;;5054071;28;20206;-64
2024/03/22 07:05:06;;;;;;;11.83;7.13;;;14.40;99.90;;;;;;5053869;28;20232;-62
2024/03/22 07:07:33;;;;;;;10.47;6.67;;;15.30;99.90;;;;;;5053903;28;20247;-62
2024/03/22 07:09:58;;;;;;;11.87;6.87;;;16.20;99.90;;;;;;5053891;28;20661;-63
2024/03/22 07:12:25;;;;;;;10.63;6.63;;;16.90;99.90;;;;;;5053860;28;20213;-63
2024/03/22 07:14:52;;;;;;;9.30;6.97;;;17.50;99.90;;;;;;5054358;28;20240;-65
2024/03/22 07:17:23;;;;;;;7.97;6.28;;;18.40;99.90;;;;;;5053757;28;20296;-63
2024/03/22 07:19:49;;;;;;;10.02;6.60;;;19.30;99.90;;;;;;5053908;28;20197;-63
2024/03/22 07:22:16;;;;;;;7.60;6.80;;;20.10;99.90;;;;;;5053868;28;20232;-62
2024/03/22 07:24:41;;;;;;;9.52;6.95;;;20.90;99.90;;;;;;5053645;28;20728;-63
2024/03/22 07:27:08;;;;;;;7.72;6.50;;;21.60;99.90;;;;;;5053715;28;20205;-62
2024/03/22 07:29:34;;;;;;;6.80;5.95;;;22.10;99.90;;;;;;5053791;28;20229;-63
2024/03/22 07:32:03;;;;;;;7.93;5.93;;;22.80;99.90;;;;;;5053531;28;20729;-63
2024/03/22 07:34:28;;;;;;;9.55;6.43;;;23.50;99.90;;;;;;5045547;28;20300;-62
2024/03/22 07:36:55;;;;;;;7.15;5.70;;;23.90;99.90;;;;;;5053507;28;20232;-63
2024/03/22 07:39:21;;;;;;;9.20;6.15;;;24.30;98.90;;;;;;5052230;28;20205;-63
2024/03/22 07:41:48;;;;;;;8.48;6.10;;;24.60;98.30;;;;;;5053733;28;20217;-63
2024/03/22 07:44:13;;;;;;;10.00;5.68;;;24.90;97.30;;;;;;5053605;28;20213;-63
2024/03/22 07:46:40;;;;;;;8.77;6.22;;;25.20;96.40;;;;;;5053297;28;20212;-63
2024/03/22 07:49:07;;;;;;;8.35;5.70;;;25.40;95.80;;;;;;5053319;28;20201;-63
2024/03/22 07:51:34;;;;;;;7.18;5.57;;;25.70;95.20;;;;;;5053252;28;20312;-62
2024/03/22 07:53:59;;;;;;;16.92;5.93;;;25.90;94.30;;;;;;5053238;28;20209;-63
2024/03/22 07:56:26;;;;;;;7.03;5.45;;;26.00;93.70;;;;;;5052950;28;20248;-63
2024/03/22 07:58:52;;;;;;;7.43;5.80;;;25.80;93.50;;;;;;5053361;28;20212;-64
2024/03/22 08:01:18;;;;;;;10.02;6.70;;;25.40;94.00;;;;;;5052929;28;20225;-63
2024/03/22 08:03:44;;;;;;;9.15;6.03;;;24.50;94.40;;;;;;5053166;28;20209;-63
2024/03/22 08:06:12;;;;;;;8.45;5.93;;;23.40;95.30;;;;;;5052811;28;20238;-63
2024/03/22 08:08:38;;;;;;;8.07;5.78;;;22.40;96.40;;;;;;5053214;28;20212;-62
2024/03/22 08:11:05;;;;;;;6.95;5.70;;;21.30;98.20;;;;;;5052954;28;20233;-62
2024/03/22 08:13:30;;;;;;;9.32;6.03;;;20.30;99.80;;;;;;5044978;28;20675;-62
2024/03/22 08:15:57;;;;;;;10.88;5.82;;;19.40;99.90;;;;;;5052893;28;20201;-62
2024/03/22 08:18:24;;;;;;;8.85;5.88;;;18.70;99.90;;;;;;5052646;28;20238;-62
2024/03/22 08:20:50;;;;;;;7.35;5.88;;;18.30;99.90;;;;;;5052478;28;20613;-61
2024/03/22 08:23:20;;;;;;;8.25;6.80;;;18.00;99.90;;;;;;5052662;28;20683;-61
2024/03/22 08:25:46;;;;;;;8.40;6.15;;;17.90;99.90;;;;;;5052618;28;20216;-61
2024/03/22 08:28:13;;;;;;;10.20;6.45;;;17.70;99.90;;;;;;5052553;28;20259;-62
2024/03/22 08:30:40;;;;;;;10.38;6.40;;;17.40;99.90;;;;;;5052407;28;20299;-63
2024/03/22 08:33:06;;;;;;;8.45;6.35;;;17.50;99.90;;;;;;5052504;28;20209;-63
2024/03/22 08:35:32;;;;;;;7.60;6.30;;;17.50;99.90;;;;;;5051949;28;20216;-62
2024/03/22 08:37:58;;;;;;;9.15;5.75;;;17.50;99.90;;;;;;5052527;28;20214;-63
2024/03/22 08:40:26;;;;;;;9.32;6.03;;;17.80;99.90;;;;;;5051868;28;20558;-63
2024/03/22 08:42:52;;;;;;;8.77;5.97;;;17.90;99.90;;;;;;5052310;28;20206;-61
2024/03/22 08:45:19;;;;;;;8.45;5.60;;;18.10;99.90;;;;;;5051700;28;20739;-60
2024/03/22 08:47:45;;;;;;;8.13;5.40;;;18.10;99.90;;;;;;5051928;28;20205;-60
2024/03/22 08:50:12;;;;;;;8.93;6.13;;;18.20;99.90;;;;;;5051350;28;20232;-61
2024/03/22 08:52:38;;;;;;;6.63;5.80;;;18.30;99.90;;;;;;5052236;28;20634;-60
2024/03/22 08:55:06;;;;;;;9.70;6.32;;;18.30;99.90;;;;;;5051863;28;20205;-59
2024/03/22 08:57:33;;;;;;;8.48;6.20;;;18.20;99.90;;;;;;5043460;28;20672;-59
2024/03/22 09:00:00;;;;;;;10.18;5.78;;;18.20;99.90;;;;;;5052281;28;20202;-60
2024/03/22 09:02:26;;;;;;;7.80;5.60;;;18.60;99.90;;;;;;5052052;28;20247;-59
2024/03/22 09:04:54;;;;;;;13.40;6.03;;;18.60;99.90;;;;;;5052377;28;20206;-60
2024/03/22 09:07:20;;;;;;;6.55;5.55;;;18.80;99.90;;;;;;5051839;28;20205;-60
2024/03/22 09:09:46;;;;;;;6.75;5.18;;;19.10;99.90;;;;;;5052105;28;20233;-59
2024/03/22 09:12:12;;;;;;;6.55;5.40;;;19.00;99.90;;;;;;5051746;28;20283;-60
2024/03/22 09:14:40;;;;;;;7.88;6.03;;;18.90;99.90;;;;;;5051643;28;20205;-61
2024/03/22 09:17:07;;;;;;;7.93;5.82;;;18.80;99.90;;;;;;5051270;28;20205;-65
2024/03/22 09:19:33;;;;;;;7.15;5.78;;;18.70;99.90;;;;;;5043742;28;20251;-60
2024/03/22 09:21:59;;;;;;;9.00;5.50;;;18.70;99.90;;;;;;5051765;28;20232;-60
2024/03/22 09:24:25;;;;;;;7.57;5.78;;;19.00;99.90;;;;;;5051585;28;20272;-60
2024/03/22 09:26:52;;;;;;;9.27;6.53;;;19.40;99.90;;;;;;5051763;28;20213;-60
2024/03/22 09:29:19;;;;;;;10.05;6.60;;;19.50;99.90;;;;;;5051470;28;20633;-60
2024/03/22 09:31:46;;;;;;;8.30;6.82;;;19.70;99.90;;;;;;5051301;28;20225;-60
2024/03/22 09:34:15;;;;;;;11.43;5.95;;;19.90;99.90;;;;;;5051859;28;20586;-59
2024/03/22 09:36:42;;;;;;;11.35;6.35;;;20.20;99.90;;;;;;5051487;28;20240;-60
2024/03/22 09:39:09;;;;;;;7.60;6.60;;;20.30;99.90;;;;;;5051619;28;20216;-60
2024/03/22 09:41:42;;;;;;;7.45;5.80;;;20.40;99.90;;;;;;5051402;28;20320;-59
2024/03/22 09:44:13;;;;;;;9.02;6.72;;;20.50;99.90;;;;;;5051314;28;20255;-59
2024/03/22 09:46:41;;;;;;;9.30;6.40;;;20.30;99.90;;;;;;5051488;28;20209;-58
2024/03/22 09:49:11;;;;;;;6.22;5.50;;;20.00;99.90;;;;;;5051277;28;20201;-60
2024/03/22 09:51:37;;;;;;;9.07;5.55;;;20.10;99.90;;;;;;5050844;28;20763;-59
2024/03/22 09:54:04;;;;;;;12.30;5.85;;;20.40;99.90;;;;;;5051190;28;20206;-60
2024/03/22 09:56:31;;;;;;;10.70;5.85;;;20.80;99.90;;;;;;5050987;28;20259;-60
2024/03/22 09:58:58;;;;;;;8.73;5.70;;;21.10;99.90;;;;;;5051430;28;20217;-59
2024/03/22 10:01:24;;;;;;;7.32;5.20;;;21.40;99.90;;;;;;5059037;22;20222;-60
2024/03/22 10:03:52;;;;;;;6.38;5.70;;;21.70;99.90;;;;;;5027171;28;20218;-61
2024/03/22 10:06:19;;;;;;;6.57;5.50;;;21.90;99.90;;;;;;5025660;28;20252;-61
2024/03/22 10:08:46;;;;;;;7.72;4.97;;;22.10;99.90;;;;;;5023589;28;20473;-60
2024/03/22 10:11:11;;;;;;;7.45;4.97;;;22.30;99.70;;;;;;5023582;28;20277;-62
2024/03/22 10:13:38;;;;;;;4.90;4.40;;;22.40;98.50;;;;;;5027060;28;20202;-60
2024/03/22 10:16:05;;;;;;;6.55;5.47;;;22.50;98.20;;;;;;5027115;28;20212;-60
2024/03/22 10:18:33;;;;;;;7.28;4.90;;;22.70;98.30;;;;;;5024264;28;20203;-59
2024/03/22 10:21:01;;;;;;;8.05;5.13;;;22.70;97.70;;;;;;5023422;28;20305;-58
2024/03/22 10:23:29;;;;;;;6.38;5.00;;;22.30;98.00;;;;;;5025792;28;20209;-61
2024/03/22 10:25:56;;;;;;;7.43;4.70;;;21.60;98.80;;;;;;5026642;28;20684;-62
2024/03/22 10:28:23;;;;;;;5.70;4.60;;;21.10;99.50;;;;;;5024574;28;20202;-61
2024/03/22 10:30:50;;;;;;;4.85;3.95;;;21.20;99.30;;;;;;5023307;28;20219;-61
2024/03/22 10:33:18;;;;;;;5.82;3.90;;;21.50;98.80;;;;;;5023808;28;20668;-59
2024/03/22 10:35:44;;;;;;;6.50;3.85;;;21.60;97.80;;;;;;5026082;28;20207;-60
2024/03/22 10:38:14;;;;;;;5.90;3.67;;;21.70;97.40;;;;;;5025903;28;20206;-62
2024/03/22 10:40:44;;;;;;;5.10;3.70;;;22.00;97.00;;;;;;5023120;28;20230;-58
2024/03/22 10:43:11;;;;;;;5.85;4.63;;;22.20;96.10;;;;;;5023434;28;20207;-60
2024/03/22 10:45:38;;;;;;;5.00;4.28;;;22.20;96.30;;;;;;5026039;28;20587;-60
2024/03/22 10:48:10;;;;;;;5.88;4.25;;;22.00;96.60;;;;;;5026129;28;20252;-61
2024/03/22 10:50:39;;;;;;;7.95;4.60;;;22.10;96.70;;;;;;5022532;28;20219;-60
2024/03/22 10:53:09;;;;;;;4.90;4.03;;;22.20;96.50;;;;;;5022651;28;20199;-61
2024/03/22 10:55:38;;;;;;;6.22;4.40;;;22.20;96.30;;;;;;5022761;28;20206;-60
2024/03/22 10:58:06;;;;;;;6.30;4.43;;;22.00;96.60;;;;;;5022828;28;20202;-60
2024/03/22 11:00:33;;;;;;;9.55;4.57;;;21.90;96.70;;;;;;5025541;28;20694;-59
2024/03/22 11:03:02;;;;;;;6.20;4.53;;;21.80;96.60;;;;;;5025829;28;20203;-60
2024/03/22 11:05:28;;;;;;;5.80;4.40;;;21.70;96.90;;;;;;5023398;28;20206;-61
2024/03/22 11:08:02;;;;;;;8.15;3.92;;;21.70;96.80;;;;;;5022839;28;20225;-61
2024/03/22 11:10:31;;;;;;;4.97;4.07;;;22.00;95.20;;;;;;5024862;28;20314;-61
2024/03/22 11:13:02;;;;;;;6.70;4.80;;;22.30;95.20;;;;;;5025716;28;20289;-58
2024/03/22 11:15:30;;;;;;;9.63;4.32;;;22.50;95.50;;;;;;5023010;28;20234;-59
2024/03/22 11:17:57;;;;;;;9.13;6.03;;;22.80;94.90;;;;;;5022515;28;20203;-58
2024/03/22 11:20:22;;;;;;;5.78;3.67;;;23.10;93.50;;;;;;5024176;28;20674;-58
2024/03/22 11:22:49;;;;;;;4.50;3.83;;;23.40;93.30;;;;;;5026386;28;20272;-59
2024/03/22 11:25:15;;;;;;;5.80;4.07;;;23.70;93.20;;;;;;5025137;28;20210;-58
2024/03/22 11:27:42;;;;;;;4.15;3.50;;;24.00;92.60;;;;;;5022748;28;20582;-58
2024/03/22 11:30:08;;;;;;;6.45;4.05;;;24.20;92.20;;;;;;5023065;28;20581;-61
2024/03/22 11:32:42;;;;;;;6.22;4.07;;;24.40;91.80;;;;;;5025080;28;20704;-60
2024/03/22 11:35:09;;;;;;;6.60;4.82;;;24.40;92.70;;;;;;5025364;28;20739;-60
2024/03/22 11:37:36;;;;;;;6.97;4.00;;;24.00;92.80;;;;;;5022112;28;20287;-60
2024/03/22 11:40:05;;;;;;;7.22;4.20;;;23.90;93.30;;;;;;5021828;28;20282;-60
2024/03/22 11:42:32;;;;;;;6.32;4.25;;;24.00;92.70;;;;;;5024300;28;20373;-60
2024/03/22 11:44:58;;;;;;;6.30;4.63;;;24.00;92.40;;;;;;5025119;28;20206;-57
2024/03/22 11:47:25;;;;;;;5.40;4.20;;;23.90;92.40;;;;;;5022911;28;20570;-57
2024/03/22 11:49:53;;;;;;;4.70;4.20;;;23.90;92.20;;;;;;5021577;28;20210;-55
2024/03/22 11:52:25;;;;;;;5.22;4.05;;;23.90;92.20;;;;;;5022686;28;20223;-57
2024/03/22 11:54:52;;;;;;;6.82;4.70;;;23.70;92.60;;;;;;5025006;28;20687;-58
2024/03/22 11:57:19;;;;;;;6.47;4.25;;;23.30;92.40;;;;;;5023914;28;20198;-62
2024/03/22 11:59:44;;;;;;;8.25;4.55;;;22.80;93.20;;;;;;5021703;28;20676;-63
2024/03/22 12:02:12;;;;;;;5.93;4.45;;;22.60;93.10;;;;;;5021280;28;20346;-64
2024/03/22 12:04:41;;;;;;;5.97;3.70;;;22.70;92.60;;;;;;5021586;28;20695;-61
2024/03/22 12:07:11;;;;;;;6.75;3.70;;;22.50;93.10;;;;;;5021167;28;20226;-61
2024/03/22 12:09:37;;;;;;;6.88;4.15;;;22.60;93.00;;;;;;5021563;28;20636;-62
2024/03/22 12:12:05;;;;;;;5.45;4.25;;;22.50;93.30;;;;;;5021122;28;20226;-62
2024/03/22 12:14:31;;;;;;;5.25;4.30;;;22.70;92.80;;;;;;5024421;28;20557;-62
2024/03/22 12:16:58;;;;;;;5.05;3.67;;;22.70;92.20;;;;;;5024576;28;20198;-62
2024/03/22 12:19:24;;;;;;;9.45;4.20;;;22.60;92.20;;;;;;5022848;28;20629;-62
2024/03/22 12:21:51;;;;;;;4.78;3.58;;;22.60;92.00;;;;;;5021033;28;20223;-62
2024/03/22 12:24:18;;;;;;;4.78;3.92;;;22.60;92.50;;;;;;5021626;28;20214;-60
2024/03/22 12:26:45;;;;;;;7.13;3.85;;;22.80;92.10;;;;;;5024109;28;20289;-60
2024/03/22 12:29:12;;;;;;;9.13;4.78;;;23.00;91.50;;;;;;5024451;28;20210;-61
2024/03/22 12:31:39;;;;;;;7.00;3.72;;;23.10;92.00;;;;;;5020945;28;20318;-61
2024/03/22 12:34:05;;;;;;;6.65;4.00;;;23.30;91.40;;;;;;5020981;28;20207;-62
2024/03/22 12:36:31;;;;;;;6.35;3.63;;;23.40;91.10;;;;;;5023256;28;20595;-61
2024/03/22 12:38:57;;;;;;;5.13;3.63;;;23.40;91.00;;;;;;5024102;28;20252;-63
2024/03/22 12:41:25;;;;;;;5.72;4.55;;;23.30;91.50;;;;;;5022449;28;20252;-61
2024/03/22 12:43:51;;;;;;;5.35;3.95;;;23.20;91.20;;;;;;5020703;28;20261;-61
2024/03/22 12:46:18;;;;;;;5.82;3.90;;;23.20;91.50;;;;;;5020962;28;20199;-61
2024/03/22 12:48:43;;;;;;;5.68;3.75;;;23.40;91.00;;;;;;5024051;28;20202;-63